Time;durP1;ratioP1;P1;durP2;ratioP2;P2;SDS_P1;SDS_P2;PMS_P1;PMS_P2;Temp;Humidity;BMP_temperature;BMP_pressure;BME280_temperature;BME280_humidity;BME280_pressure;Samples;Min_cycle;Max_cycle;Signal;HPM_P1;HPM_P2
2021/04/30 00:02:28;;;;;;;0.08;0.00;;;7.70;99.90;;;;;;21073952;28;20121;-46
2021/04/30 00:12:30;;;;;;;0.10;0.10;;;7.50;99.90;;;;;;21073790;28;20044;-46
2021/04/30 00:22:32;;;;;;;0.40;0.30;;;7.80;99.90;;;;;;21072471;28;20058;-47
2021/04/30 00:32:34;;;;;;;1.23;0.20;;;7.90;99.90;;;;;;21072308;28;20028;-49
2021/04/30 00:42:37;;;;;;;0.73;0.28;;;8.10;99.90;;;;;;21072589;28;20085;-45
2021/04/30 00:52:39;;;;;;;0.98;0.30;;;8.00;99.90;;;;;;21072225;28;20067;-47
2021/04/30 01:02:41;;;;;;;1.60;0.40;;;8.00;99.90;;;;;;21072484;28;20509;-46
2021/04/30 01:12:43;;;;;;;1.23;0.50;;;8.20;99.90;;;;;;21072851;28;20439;-46
2021/04/30 01:22:54;;;;;;;1.08;0.30;;;8.30;99.90;;;;;;21073134;28;20036;-45
2021/04/30 01:32:56;;;;;;;1.20;0.60;;;8.40;99.90;;;;;;21086925;28;20120;-45
2021/04/30 01:43:06;;;;;;;1.60;0.70;;;8.50;99.90;;;;;;21085633;28;20062;-49
2021/04/30 01:53:13;;;;;;;1.05;0.60;;;8.20;99.90;;;;;;21084599;28;20028;-44
2021/04/30 02:03:16;;;;;;;1.20;0.68;;;8.10;99.90;;;;;;21084051;28;20105;-51
2021/04/30 02:13:19;;;;;;;1.45;0.60;;;8.30;99.90;;;;;;21083245;28;20036;-47
2021/04/30 02:23:21;;;;;;;1.10;0.85;;;8.20;99.90;;;;;;21082167;28;20058;-47
2021/04/30 02:33:23;;;;;;;2.28;0.80;;;8.10;99.90;;;;;;21082285;28;20101;-46
2021/04/30 02:43:25;;;;;;;1.30;0.77;;;8.10;99.90;;;;;;21080496;28;20048;-46
2021/04/30 02:53:27;;;;;;;1.00;0.80;;;8.10;99.90;;;;;;21079497;28;20070;-46
2021/04/30 03:03:29;;;;;;;1.80;1.25;;;8.20;99.90;;;;;;21079000;28;20044;-46
2021/04/30 03:13:30;;;;;;;2.17;0.90;;;8.40;99.90;;;;;;21078044;28;20062;-48
2021/04/30 03:23:32;;;;;;;1.40;0.85;;;8.20;99.90;;;;;;21077187;28;20424;-46
2021/04/30 03:33:34;;;;;;;1.90;1.00;;;8.20;99.90;;;;;;21076392;28;20061;-45
2021/04/30 03:43:35;;;;;;;2.63;0.85;;;8.20;99.90;;;;;;21075704;28;20428;-45
2021/04/30 03:53:37;;;;;;;1.48;1.10;;;8.40;99.90;;;;;;21074759;28;20098;-47
2021/04/30 04:03:39;;;;;;;2.08;1.10;;;8.30;99.90;;;;;;21074626;28;20060;-45
2021/04/30 04:13:41;;;;;;;3.88;1.80;;;8.30;99.90;;;;;;21073541;28;20036;-45
2021/04/30 04:23:43;;;;;;;2.42;1.73;;;8.10;99.90;;;;;;21074018;28;20028;-48
2021/04/30 04:33:45;;;;;;;3.63;1.08;;;7.90;99.90;;;;;;21073274;28;20085;-47
2021/04/30 04:43:47;;;;;;;2.28;1.50;;;7.80;99.90;;;;;;21073760;28;20036;-45
2021/04/30 04:53:49;;;;;;;4.47;1.83;;;7.90;99.90;;;;;;21070954;28;20097;-48
2021/04/30 05:03:51;;;;;;;1.65;0.65;;;7.90;99.90;;;;;;21083722;28;20040;-44
2021/04/30 05:13:52;;;;;;;2.15;0.98;;;8.00;99.90;;;;;;21088009;28;20386;-45
2021/04/30 05:23:57;;;;;;;2.33;1.40;;;8.00;99.90;;;;;;21087843;28;20059;-45
2021/04/30 05:33:59;;;;;;;1.58;1.10;;;8.10;99.90;;;;;;21086401;28;20036;-46
2021/04/30 05:44:01;;;;;;;5.32;2.13;;;8.20;99.90;;;;;;21086077;28;20117;-45
2021/04/30 05:54:04;;;;;;;3.35;2.10;;;8.20;99.90;;;;;;21084152;28;20040;-45
2021/04/30 06:04:06;;;;;;;2.65;1.98;;;8.20;99.90;;;;;;21085096;28;20559;-49
2021/04/30 06:14:09;;;;;;;2.22;1.33;;;8.30;99.90;;;;;;21082309;28;20040;-46
2021/04/30 06:24:12;;;;;;;3.88;2.10;;;8.20;99.90;;;;;;21082789;28;20440;-45
2021/04/30 06:34:14;;;;;;;2.00;1.33;;;8.30;99.90;;;;;;21082679;28;20081;-47
2021/04/30 06:44:15;;;;;;;3.33;1.50;;;8.40;99.90;;;;;;21080616;28;20044;-46
2021/04/30 06:54:18;;;;;;;5.85;2.20;;;8.70;99.90;;;;;;21080062;28;20036;-46
2021/04/30 07:04:20;;;;;;;2.22;1.17;;;8.90;99.90;;;;;;21081456;28;20097;-45
2021/04/30 07:14:22;;;;;;;3.00;2.28;;;9.00;99.90;;;;;;21081219;28;20044;-45
2021/04/30 07:24:24;;;;;;;4.78;2.70;;;9.40;99.90;;;;;;21078196;28;20525;-46
2021/04/30 07:34:25;;;;;;;7.38;4.07;;;9.50;99.90;;;;;;21059914;28;20081;-45
2021/04/30 07:44:27;;;;;;;6.63;4.55;;;9.60;99.90;;;;;;21076504;28;20043;-47
2021/04/30 07:54:34;;;;;;;4.75;3.25;;;9.60;99.90;;;;;;21077140;28;20061;-48
2021/04/30 08:04:35;;;;;;;6.30;4.80;;;9.50;99.90;;;;;;21075066;28;20035;-45
2021/04/30 08:14:38;;;;;;;7.15;3.33;;;9.70;99.90;;;;;;21075625;28;20032;-49
2021/04/30 08:24:40;;;;;;;3.92;2.80;;;9.50;99.90;;;;;;21074044;28;20047;-47
2021/04/30 08:34:43;;;;;;;3.83;3.13;;;9.70;99.90;;;;;;21071333;28;20070;-46
2021/04/30 08:44:45;;;;;;;6.78;4.20;;;10.30;99.90;;;;;;21074093;28;20051;-45
2021/04/30 08:54:51;;;;;;;198.70;15.85;;;10.50;99.90;;;;;;21072223;28;20093;-46
2021/04/30 09:04:53;;;;;;;6.65;4.47;;;10.40;99.90;;;;;;21073413;28;20370;-45
2021/04/30 09:14:56;;;;;;;625.00;32.72;;;10.20;99.90;;;;;;21072570;28;20062;-45
2021/04/30 09:25:05;;;;;;;221.10;14.68;;;10.40;99.90;;;;;;21071158;28;20040;-48
2021/04/30 09:35:07;;;;;;;360.20;19.83;;;10.60;99.90;;;;;;21072591;28;20133;-45
2021/04/30 09:45:10;;;;;;;205.18;16.08;;;10.40;99.90;;;;;;21074248;28;20085;-45
2021/04/30 09:55:14;;;;;;;208.48;16.35;;;10.50;99.90;;;;;;21084687;28;20089;-46
2021/04/30 10:05:22;;;;;;;14.95;5.75;;;10.90;99.90;;;;;;21084562;28;20094;-46
2021/04/30 10:15:24;;;;;;;10.80;5.65;;;11.60;99.90;;;;;;21083880;28;20046;-45
2021/04/30 10:25:28;;;;;;;4.65;3.70;;;12.50;99.90;;;;;;21084952;28;20032;-50
2021/04/30 10:35:52;;;;;;;8.52;5.05;;;13.20;99.90;;;;;;21084246;28;20097;-45
2021/04/30 10:46:13;;;;;;;6.40;4.75;;;12.40;99.90;;;;;;21082863;28;20036;-48
2021/04/30 10:56:34;;;;;;;338.70;22.77;;;11.60;99.90;;;;;;21079716;28;20463;-46
2021/04/30 11:06:57;;;;;;;7.95;5.65;;;11.40;99.90;;;;;;21080938;28;20044;-47
2021/04/30 11:17:00;;;;;;;8.05;6.05;;;12.20;99.90;;;;;;21080399;28;20069;-46
2021/04/30 11:27:17;;;;;;;15.10;8.30;;;12.40;99.90;;;;;;21080430;28;20087;-51
2021/04/30 11:37:20;;;;;;;8.38;6.50;;;12.30;99.90;;;;;;21079560;28;20058;-48
2021/04/30 11:47:36;;;;;;;8.75;6.25;;;13.40;99.90;;;;;;21077048;28;20032;-46
2021/04/30 11:57:38;;;;;;;9.23;6.18;;;14.00;99.90;;;;;;21076184;28;20097;-48
2021/04/30 12:07:43;;;;;;;7.80;5.40;;;15.20;99.90;;;;;;21075509;28;20105;-49
2021/04/30 12:17:45;;;;;;;7.13;5.28;;;16.20;99.90;;;;;;21075025;28;20097;-46
2021/04/30 12:27:48;;;;;;;5.38;3.63;;;15.60;99.90;;;;;;21073124;28;20085;-47
2021/04/30 12:37:53;;;;;;;9.50;7.10;;;15.70;99.90;;;;;;21072707;28;20032;-46
2021/04/30 12:47:56;;;;;;;3.83;2.90;;;15.30;99.90;;;;;;21072202;28;20028;-47
2021/04/30 12:58:19;;;;;;;4.85;3.88;;;14.80;99.90;;;;;;21071789;28;20117;-48
2021/04/30 13:08:21;;;;;;;8.10;4.75;;;14.00;99.90;;;;;;21070855;28;20093;-46
2021/04/30 13:18:35;;;;;;;9.57;5.80;;;13.30;99.90;;;;;;21071413;28;20481;-51
2021/04/30 13:28:37;;;;;;;7.07;4.75;;;15.20;99.90;;;;;;21086456;28;20036;-48
2021/04/30 13:38:39;;;;;;;5.93;4.43;;;15.70;99.90;;;;;;21085492;28;20085;-47
2021/04/30 13:48:42;;;;;;;4.78;3.10;;;14.30;99.90;;;;;;21084955;28;20490;-49
2021/04/30 13:58:51;;;;;;;3.97;2.55;;;13.20;99.90;;;;;;21084419;28;20408;-47
2021/04/30 14:08:54;;;;;;;4.10;2.60;;;13.20;99.90;;;;;;21082010;28;20040;-46
2021/04/30 14:18:55;;;;;;;3.53;2.33;;;13.80;99.90;;;;;;21081934;28;20101;-50
2021/04/30 14:28:57;;;;;;;5.30;3.55;;;14.40;99.90;;;;;;21081194;28;20040;-46
2021/04/30 14:39:00;;;;;;;7.57;4.85;;;14.20;99.90;;;;;;21079714;28;20062;-46
2021/04/30 14:49:02;;;;;;;7.30;4.53;;;13.90;99.90;;;;;;21079741;28;20094;-52
2021/04/30 14:59:04;;;;;;;8.05;5.20;;;13.50;99.90;;;;;;21077260;28;20448;-47
2021/04/30 15:09:07;;;;;;;6.40;3.90;;;13.80;99.90;;;;;;21077923;28;20036;-46
2021/04/30 15:19:09;;;;;;;4.55;2.90;;;14.70;99.90;;;;;;21077489;28;20432;-46
2021/04/30 15:29:10;;;;;;;5.47;3.17;;;15.10;99.90;;;;;;21076581;28;20582;-49
2021/04/30 15:39:12;;;;;;;4.30;3.10;;;14.60;99.90;;;;;;21076069;28;20032;-48
2021/04/30 15:49:14;;;;;;;4.18;2.97;;;15.00;99.90;;;;;;21073431;28;20032;-45
2021/04/30 15:59:17;;;;;;;7.10;4.88;;;14.60;99.90;;;;;;21074600;28;20047;-50
2021/04/30 16:09:23;;;;;;;8.25;5.15;;;13.10;99.90;;;;;;21073595;28;20040;-45
2021/04/30 16:19:25;;;;;;;9.60;6.00;;;12.10;99.90;;;;;;21073143;28;20451;-45
2021/04/30 16:29:27;;;;;;;7.80;5.70;;;11.80;99.90;;;;;;21071010;28;20040;-46
2021/04/30 16:39:31;;;;;;;10.00;6.13;;;11.70;99.90;;;;;;21072014;28;20539;-46
2021/04/30 16:49:33;;;;;;;10.40;6.70;;;11.60;99.90;;;;;;21071579;28;20093;-45
2021/04/30 16:59:35;;;;;;;8.38;5.25;;;11.70;99.90;;;;;;21082625;28;20090;-48
2021/04/30 17:09:37;;;;;;;4.90;3.33;;;11.70;99.90;;;;;;21087604;28;20109;-45
2021/04/30 17:19:39;;;;;;;4.28;2.47;;;11.50;99.90;;;;;;21087064;28;20085;-46
2021/04/30 17:29:40;;;;;;;3.38;2.25;;;11.40;99.90;;;;;;21086128;28;20085;-46
2021/04/30 17:39:42;;;;;;;2.92;2.00;;;11.20;99.90;;;;;;21085891;28;20036;-48
2021/04/30 17:49:44;;;;;;;8.10;3.03;;;10.70;99.90;;;;;;21084809;28;20058;-45
2021/04/30 17:59:46;;;;;;;6.60;2.80;;;10.50;99.90;;;;;;21083448;28;20093;-46
2021/04/30 18:09:48;;;;;;;4.20;3.17;;;10.30;99.90;;;;;;21082946;28;20058;-45
2021/04/30 18:19:50;;;;;;;7.72;4.43;;;9.90;99.90;;;;;;21082312;28;20036;-46
2021/04/30 18:29:52;;;;;;;5.30;3.60;;;9.70;99.90;;;;;;21081648;28;20363;-45
2021/04/30 18:39:53;;;;;;;5.97;3.65;;;9.10;99.90;;;;;;21080800;28;20031;-45
2021/04/30 18:49:55;;;;;;;9.18;5.95;;;8.60;99.90;;;;;;21079827;28;20040;-46
2021/04/30 18:59:57;;;;;;;12.18;7.63;;;8.50;99.90;;;;;;21077905;28;20052;-45
2021/04/30 19:10:08;;;;;;;17.13;10.85;;;8.70;99.90;;;;;;21078571;28;20028;-51
2021/04/30 19:20:11;;;;;;;17.63;11.38;;;8.90;99.90;;;;;;21078764;28;20040;-46
2021/04/30 19:30:14;;;;;;;18.38;12.02;;;9.00;99.90;;;;;;21076859;28;20119;-45
2021/04/30 19:40:16;;;;;;;15.02;9.70;;;9.10;99.90;;;;;;21076722;28;20044;-45
2021/04/30 19:50:25;;;;;;;16.48;10.68;;;9.20;99.90;;;;;;21076231;28;20039;-46
2021/04/30 20:00:27;;;;;;;16.17;9.85;;;9.00;99.90;;;;;;21075958;28;20105;-45
2021/04/30 20:10:30;;;;;;;15.15;10.25;;;9.00;99.90;;;;;;21076142;28;20044;-50
2021/04/30 20:20:33;;;;;;;17.25;10.50;;;9.00;99.90;;;;;;21075696;28;20089;-45
2021/04/30 20:30:35;;;;;;;18.20;10.73;;;9.10;99.90;;;;;;21074590;28;20061;-45
2021/04/30 20:40:37;;;;;;;17.85;11.82;;;9.00;99.90;;;;;;21074152;28;20036;-45
2021/04/30 20:50:55;;;;;;;28.05;17.35;;;8.90;99.90;;;;;;21074644;28;20431;-45
2021/04/30 21:00:57;;;;;;;22.33;13.45;;;8.90;99.90;;;;;;21075939;28;20105;-46
2021/04/30 21:11:00;;;;;;;19.40;12.98;;;9.00;99.90;;;;;;21076865;28;20082;-50
2021/04/30 21:21:03;;;;;;;22.42;13.85;;;9.20;99.90;;;;;;21076997;28;20036;-45
2021/04/30 21:31:05;;;;;;;21.63;12.80;;;9.30;99.90;;;;;;21074325;28;20048;-47
2021/04/30 21:41:07;;;;;;;9.57;5.88;;;9.20;99.90;;;;;;21078236;28;20040;-45
2021/04/30 21:51:09;;;;;;;13.38;8.95;;;9.00;99.90;;;;;;21090759;28;20161;-46
2021/04/30 22:01:45;;;;;;;96.25;19.42;;;8.90;99.90;;;;;;21088732;28;20105;-45
2021/04/30 22:12:14;;;;;;;99.90;23.45;;;9.10;99.90;;;;;;21088192;28;20040;-46
2021/04/30 22:22:16;;;;;;;314.55;34.28;;;9.10;99.90;;;;;;21082156;28;20048;-46
2021/04/30 22:32:20;;;;;;;359.13;37.22;;;9.10;99.90;;;;;;21086461;28;20032;-45
2021/04/30 22:42:22;;;;;;;113.38;24.67;;;9.20;99.90;;;;;;21086770;28;20028;-45
2021/04/30 22:52:24;;;;;;;31.92;18.92;;;9.30;99.90;;;;;;21083140;28;20036;-45
2021/04/30 23:02:26;;;;;;;29.88;19.48;;;9.20;99.90;;;;;;21083183;28;20048;-45
2021/04/30 23:12:28;;;;;;;20.88;13.30;;;9.30;99.90;;;;;;21083233;28;20044;-46
2021/04/30 23:22:30;;;;;;;25.27;15.88;;;8.90;99.90;;;;;;21081527;28;20027;-45
2021/04/30 23:32:31;;;;;;;24.48;15.65;;;8.40;99.90;;;;;;21080564;28;20050;-50
2021/04/30 23:42:33;;;;;;;25.98;15.38;;;8.40;99.90;;;;;;21080912;28;20036;-51
2021/04/30 23:52:35;;;;;;;22.95;14.30;;;8.30;99.90;;;;;;21078856;28;20497;-45
